Time;durP1;ratioP1;P1;durP2;ratioP2;P2;SDS_P1;SDS_P2;PMS_P1;PMS_P2;Temp;Humidity;BMP_temperature;BMP_pressure;BME280_temperature;BME280_humidity;BME280_pressure;Samples;Min_cycle;Max_cycle;Signal;HPM_P1;HPM_P2
2023/08/29 00:00:56;;;;;;;;;;;;;;;27.86;42.88;93677.28;5047827;28;7047;-62
2023/08/29 00:03:22;;;;;;;;;;;;;;;27.89;43.35;93676.16;5059311;28;7195;-63
2023/08/29 00:06:00;;;;;;;;;;;;;;;27.86;42.72;93677.28;5045222;28;7073;-62
2023/08/29 00:08:28;;;;;;;;;;;;;;;27.88;42.81;93669.19;5037126;28;9121;-62
2023/08/29 00:11:04;;;;;;;;;;;;;;;27.87;42.63;93667.69;5061941;28;8837;-62
2023/08/29 00:13:31;;;;;;;;;;;;;;;27.88;43.12;93671.94;5047271;28;7244;-62
2023/08/29 00:15:58;;;;;;;;;;;;;;;27.86;43.18;93668.97;5055884;28;9094;-62
2023/08/29 00:18:24;;;;;;;;;;;;;;;27.84;43.15;93677.06;5039989;28;9182;-62
2023/08/29 00:21:00;;;;;;;;;;;;;;;27.87;43.07;93673.97;5037040;28;7062;-62
2023/08/29 00:23:26;;;;;;;;;;;;;;;27.86;42.90;93671.75;5042314;28;7199;-62
2023/08/29 00:25:56;;;;;;;;;;;;;;;27.86;42.86;93666.94;5053617;28;7198;-63
2023/08/29 00:28:40;;;;;;;;;;;;;;;27.84;42.87;93671.56;5047803;28;7210;-62
2023/08/29 00:31:07;;;;;;;;;;;;;;;27.87;42.77;93664.94;5054195;28;9205;-62
2023/08/29 00:34:05;;;;;;;;;;;;;;;27.84;42.66;93661.22;5054637;28;7229;-62
2023/08/29 00:36:32;;;;;;;;;;;;;;;27.84;43.18;93671.56;4980604;28;7622;-62
2023/08/29 00:39:29;;;;;;;;;;;;;;;27.81;42.92;93672.63;4967828;28;6993;-62
2023/08/29 00:41:56;;;;;;;;;;;;;;;27.82;42.96;93666.56;4938223;28;7236;-62
2023/08/29 00:44:49;;;;;;;;;;;;;;;27.83;43.03;93675.59;4933399;28;8718;-62
2023/08/29 00:47:26;;;;;;;;;;;;;;;27.82;43.13;93674.13;4942193;28;7475;-62
2023/08/29 00:49:52;;;;;;;;;;;;;;;27.81;43.27;93672.63;4951369;28;7257;-62
2023/08/29 00:52:30;;;;;;;;;;;;;;;27.82;42.84;93668.59;4951804;28;7216;-62
2023/08/29 00:55:08;;;;;;;;;;;;;;;27.82;42.90;93660.31;4928263;28;7329;-62
2023/08/29 00:57:34;;;;;;;;;;;;;;;27.82;43.11;93665.84;4941000;28;7089;-62
2023/08/29 01:00:01;;;;;;;;;;;;;;;27.81;42.80;93665.09;4948071;28;9542;-63
2023/08/29 01:02:28;;;;;;;;;;;;;;;27.81;42.62;93656.78;4959597;28;8927;-62
2023/08/29 01:04:54;;;;;;;;;;;;;;;27.77;43.02;93658.41;4945845;28;7024;-62
2023/08/29 01:07:23;;;;;;;;;;;;;;;27.80;43.47;93658.06;4929016;29;7301;-62
2023/08/29 01:09:49;;;;;;;;;;;;;;;27.79;42.90;93648.31;4948768;28;7006;-62
2023/08/29 01:12:35;;;;;;;;;;;;;;;27.81;42.44;93659.56;4966288;28;7015;-62
2023/08/29 01:15:21;;;;;;;;;;;;;;;27.80;42.84;93654.56;5024852;28;9090;-62
2023/08/29 01:18:03;;;;;;;;;;;;;;;27.79;42.98;93653.09;5040437;28;8869;-62
2023/08/29 01:20:31;;;;;;;;;;;;;;;27.79;42.98;93656.59;5043936;28;7147;-62
2023/08/29 01:23:07;;;;;;;;;;;;;;;27.77;43.02;93655.66;5045619;28;7146;-62
2023/08/29 01:26:01;;;;;;;;;;;;;;;27.76;42.93;93646.63;5050999;28;8907;-62
2023/08/29 01:28:30;;;;;;;;;;;;;;;27.77;43.05;93652.91;5051864;28;7199;-62
2023/08/29 01:30:57;;;;;;;;;;;;;;;27.76;42.64;93648.63;5048643;28;9155;-62
2023/08/29 01:33:24;;;;;;;;;;;;;;;27.77;43.35;93644.59;5043903;28;8258;-63
2023/08/29 01:35:50;;;;;;;;;;;;;;;27.74;43.11;93649.19;5037662;28;8894;-62
2023/08/29 01:38:21;;;;;;;;;;;;;;;27.75;43.13;93658.22;5053207;28;9645;-62
2023/08/29 01:40:50;;;;;;;;;;;;;;;27.77;43.53;93658.41;5050636;28;8502;-62
2023/08/29 01:43:18;;;;;;;;;;;;;;;27.76;42.93;93648.63;5049406;28;8430;-62
2023/08/29 01:45:44;;;;;;;;;;;;;;;27.77;42.88;93647.38;5061884;28;9569;-55
2023/08/29 01:48:13;;;;;;;;;;;;;;;27.73;42.52;93642.16;5044200;28;9071;-56
2023/08/29 01:50:47;;;;;;;;;;;;;;;27.75;43.08;93638.88;5060330;28;7206;-56
2023/08/29 01:53:13;;;;;;;;;;;;;;;27.77;42.79;93647.38;5054083;28;7648;-56
2023/08/29 01:55:46;;;;;;;;;;;;;;;27.76;43.01;93646.63;5050847;28;9073;-56
2023/08/29 01:58:16;;;;;;;;;;;;;;;27.74;42.93;93640.16;5037400;28;7238;-56
2023/08/29 02:00:47;;;;;;;;;;;;;;;27.76;42.71;93649.38;5042335;28;6987;-56
2023/08/29 02:03:16;;;;;;;;;;;;;;;27.76;42.58;93651.41;5041658;28;7238;-56
2023/08/29 02:05:45;;;;;;;;;;;;;;;27.73;42.89;93638.69;5038844;28;7077;-56
2023/08/29 02:08:11;;;;;;;;;;;;;;;27.76;43.15;93645.88;5054099;28;9053;-56
2023/08/29 02:10:37;;;;;;;;;;;;;;;27.76;42.61;93645.88;5065937;28;9077;-56
2023/08/29 02:13:03;;;;;;;;;;;;;;;27.78;42.72;93646.06;5047949;28;7283;-56
2023/08/29 02:15:29;;;;;;;;;;;;;;;27.76;42.70;93651.41;5063783;28;10080;-56
2023/08/29 02:17:55;;;;;;;;;;;;;;;27.73;43.16;93650.47;5037164;28;9341;-56
2023/08/29 02:20:23;;;;;;;;;;;;;;;27.74;43.23;93651.94;5043297;28;7038;-56
2023/08/29 02:22:50;;;;;;;;;;;;;;;27.71;42.75;93646.78;5044930;28;9138;-56
2023/08/29 02:25:16;;;;;;;;;;;;;;;27.75;42.74;93658.22;5035142;28;7227;-56
2023/08/29 02:27:44;;;;;;;;;;;;;;;27.74;42.88;93659.50;5038908;28;9257;-56
2023/08/29 02:30:11;;;;;;;;;;;;;;;27.74;42.56;93656.72;5048004;28;7108;-56
2023/08/29 02:32:39;;;;;;;;;;;;;;;27.72;42.72;93654.53;5052910;28;9102;-56
2023/08/29 02:35:08;;;;;;;;;;;;;;;27.73;43.42;93649.75;5059713;28;7068;-56
2023/08/29 02:37:34;;;;;;;;;;;;;;;27.72;42.97;93648.25;5053884;28;7239;-56
2023/08/29 02:40:04;;;;;;;;;;;;;;;27.72;42.94;93649.00;5049492;28;7219;-56
2023/08/29 02:42:31;;;;;;;;;;;;;;;27.72;43.01;93646.22;5043281;28;7004;-56
2023/08/29 02:44:57;;;;;;;;;;;;;;;27.71;43.02;93641.97;5038464;28;7194;-56
2023/08/29 02:47:23;;;;;;;;;;;;;;;27.73;42.86;93650.47;5041564;28;9589;-56
2023/08/29 02:49:48;;;;;;;;;;;;;;;27.72;43.21;93642.72;5052435;28;7121;-56
2023/08/29 02:52:14;;;;;;;;;;;;;;;27.72;43.03;93639.97;5045163;28;7125;-56
2023/08/29 02:54:50;;;;;;;;;;;;;;;27.71;43.06;93641.97;5055275;28;9033;-65
2023/08/29 02:57:17;;;;;;;;;;;;;;;27.69;42.97;93644.53;5042994;28;7108;-65
2023/08/29 02:59:43;;;;;;;;;;;;;;;27.71;42.72;93649.53;5053381;28;7265;-65
2023/08/29 03:02:10;;;;;;;;;;;;;;;27.64;42.93;93632.34;5062514;28;9008;-65
2023/08/29 03:04:36;;;;;;;;;;;;;;;27.64;42.97;93642.69;5063376;28;7222;-65
2023/08/29 03:07:04;;;;;;;;;;;;;;;27.63;42.97;93632.91;5055842;28;9226;-65
2023/08/29 03:09:31;;;;;;;;;;;;;;;27.60;42.89;93629.19;5038878;28;10305;-65
2023/08/29 03:11:58;;;;;;;;;;;;;;;27.59;43.15;93635.28;5052717;28;7254;-65
2023/08/29 03:14:24;;;;;;;;;;;;;;;27.60;43.15;93625.69;5062882;28;7210;-65
2023/08/29 03:16:51;;;;;;;;;;;;;;;27.59;42.81;93630.50;5037126;28;7313;-65
2023/08/29 03:19:19;;;;;;;;;;;;;;;27.56;43.05;93626.03;5037051;28;7314;-65
2023/08/29 03:21:48;;;;;;;;;;;;;;;27.59;43.45;93624.97;5039559;28;7148;-65
2023/08/29 03:24:17;;;;;;;;;;;;;;;27.55;43.09;93619.06;5054638;28;9078;-65
2023/08/29 03:26:43;;;;;;;;;;;;;;;27.56;42.97;93626.03;5062625;28;7891;-65
2023/08/29 03:29:15;;;;;;;;;;;;;;;27.55;43.01;93630.09;5049168;28;7509;-65
2023/08/29 03:31:44;;;;;;;;;;;;;;;27.54;43.13;93622.34;5055833;28;9071;-65
2023/08/29 03:34:10;;;;;;;;;;;;;;;27.52;43.11;93620.13;5051557;28;7261;-65
2023/08/29 03:36:44;;;;;;;;;;;;;;;27.55;43.33;93624.56;5049168;28;9122;-65
2023/08/29 03:39:16;;;;;;;;;;;;;;;27.55;43.21;93616.28;5053372;28;7289;-65
2023/08/29 03:41:42;;;;;;;;;;;;;;;27.54;42.95;93623.09;5048431;28;7215;-65
2023/08/29 03:44:28;;;;;;;;;;;;;;;27.53;43.11;93613.31;5046179;28;6989;-65
2023/08/29 03:46:57;;;;;;;;;;;;;;;27.49;42.78;93604.63;5063649;28;7702;-65
2023/08/29 03:49:32;;;;;;;;;;;;;;;27.46;43.25;93616.78;5053176;28;8798;-65
2023/08/29 03:51:58;;;;;;;;;;;;;;;27.48;43.20;93619.72;5065942;28;7225;-65
2023/08/29 03:54:28;;;;;;;;;;;;;;;27.49;43.20;93618.44;5052447;28;8776;-65
2023/08/29 03:57:05;;;;;;;;;;;;;;;27.53;43.08;93618.81;5054923;28;7317;-65
2023/08/29 03:59:31;;;;;;;;;;;;;;;27.52;43.32;93620.13;5045137;28;9169;-65
2023/08/29 04:01:58;;;;;;;;;;;;;;;27.52;42.94;93622.88;5063848;28;7605;-65
2023/08/29 04:04:25;;;;;;;;;;;;;;;27.50;42.96;93622.69;5050913;28;7080;-65
2023/08/29 04:06:53;;;;;;;;;;;;;;;27.49;43.48;93620.47;5040983;28;7034;-65
2023/08/29 04:09:21;;;;;;;;;;;;;;;27.47;43.19;93626.53;5039873;28;7241;-65
2023/08/29 04:12:16;;;;;;;;;;;;;;;27.48;43.27;93624.50;5039261;28;7291;-65
2023/08/29 04:14:44;;;;;;;;;;;;;;;27.45;43.27;93623.56;5002458;28;7260;-65
2023/08/29 04:17:20;;;;;;;;;;;;;;;27.45;43.21;93629.09;5011867;28;9113;-65
2023/08/29 04:19:46;;;;;;;;;;;;;;;27.47;43.00;93634.09;5005059;28;7240;-65
2023/08/29 04:22:12;;;;;;;;;;;;;;;27.44;42.90;93624.88;5008364;28;8879;-65
2023/08/29 04:24:40;;;;;;;;;;;;;;;27.45;43.14;93631.84;4999153;28;6962;-65
2023/08/29 04:27:09;;;;;;;;;;;;;;;27.44;43.55;93624.88;5007842;28;7223;-65
2023/08/29 04:29:35;;;;;;;;;;;;;;;27.41;43.39;93628.69;5003035;28;9144;-65
2023/08/29 04:32:01;;;;;;;;;;;;;;;27.41;42.98;93636.97;5008719;28;7363;-64
2023/08/29 04:34:40;;;;;;;;;;;;;;;27.37;43.16;93631.06;4993332;28;9035;-64
2023/08/29 04:37:08;;;;;;;;;;;;;;;27.39;43.10;93636.78;5007840;28;8882;-64
2023/08/29 04:39:37;;;;;;;;;;;;;;;27.39;43.31;93633.28;4992704;28;8767;-64
2023/08/29 04:42:03;;;;;;;;;;;;;;;27.40;42.72;93643.81;5004938;28;8838;-64
2023/08/29 04:44:55;;;;;;;;;;;;;;;27.39;43.20;93642.31;4988693;28;9099;-64
2023/08/29 04:47:22;;;;;;;;;;;;;;;27.38;43.60;93656.66;4994404;28;7244;-64
2023/08/29 04:50:03;;;;;;;;;;;;;;;27.36;43.35;93657.19;4990126;28;8759;-64
2023/08/29 04:52:32;;;;;;;;;;;;;;;27.36;43.33;93651.66;5043097;28;9108;-64
2023/08/29 04:55:07;;;;;;;;;;;;;;;27.38;44.06;93651.84;5045699;28;8990;-64
2023/08/29 04:57:37;;;;;;;;;;;;;;;27.33;43.83;93655.50;5036541;28;7273;-65
2023/08/29 05:00:05;;;;;;;;;;;;;;;27.34;43.54;93656.25;5039141;28;8346;-65
2023/08/29 05:02:41;;;;;;;;;;;;;;;27.36;43.73;93648.19;5040549;28;9137;-63
2023/08/29 05:05:10;;;;;;;;;;;;;;;27.39;43.55;93652.59;5046594;28;9236;-65
2023/08/29 05:07:37;;;;;;;;;;;;;;;27.38;43.43;93660.16;5047451;28;9738;-64
2023/08/29 05:10:10;;;;;;;;;;;;;;;27.37;43.55;93657.94;5045168;28;7243;-64
2023/08/29 05:12:47;;;;;;;;;;;;;;;27.35;43.65;93661.25;5044131;28;7114;-64
2023/08/29 05:15:21;;;;;;;;;;;;;;;27.33;43.59;93661.00;5040715;28;7146;-64
2023/08/29 05:17:49;;;;;;;;;;;;;;;27.35;43.53;93655.72;5038426;28;7173;-64
2023/08/29 05:20:47;;;;;;;;;;;;;;;27.36;44.00;93659.22;5040204;28;8990;-64
2023/08/29 05:23:17;;;;;;;;;;;;;;;27.34;44.09;93654.19;4988971;28;7256;-64
2023/08/29 05:25:47;;;;;;;;;;;;;;;27.35;44.08;93666.75;4988494;28;7561;-65
2023/08/29 05:28:16;;;;;;;;;;;;;;;27.35;45.01;93660.47;4999552;28;9043;-64
2023/08/29 05:30:52;;;;;;;;;;;;;;;27.36;44.32;93664.75;4993163;28;7188;-64
2023/08/29 05:33:34;;;;;;;;;;;;;;;27.35;44.71;93661.25;4981193;28;7252;-64
2023/08/29 05:36:01;;;;;;;;;;;;;;;27.36;43.69;93662.00;5008402;28;7029;-65
2023/08/29 05:38:28;;;;;;;;;;;;;;;27.34;43.79;93661.75;4997410;28;7133;-65
2023/08/29 05:40:56;;;;;;;;;;;;;;;27.34;43.79;93668.00;4988157;28;7008;-66
2023/08/29 05:43:33;;;;;;;;;;;;;;;27.33;43.25;93669.28;4982050;28;7326;-65
2023/08/29 05:46:03;;;;;;;;;;;;;;;27.32;43.40;93676.09;4985263;28;9346;-65
2023/08/29 05:48:29;;;;;;;;;;;;;;;27.32;43.66;93678.84;4982577;28;7519;-65
2023/08/29 05:50:55;;;;;;;;;;;;;;;27.34;43.43;93676.28;4984163;28;9081;-65
2023/08/29 05:53:21;;;;;;;;;;;;;;;27.35;43.55;93677.03;4985629;28;9360;-65
2023/08/29 05:55:56;;;;;;;;;;;;;;;27.35;43.54;93677.81;4967707;28;7237;-65
2023/08/29 05:58:22;;;;;;;;;;;;;;;27.35;43.36;93671.50;5005515;28;7475;-65
2023/08/29 06:00:48;;;;;;;;;;;;;;;27.35;43.18;93677.03;5043098;28;7257;-65
2023/08/29 06:03:17;;;;;;;;;;;;;;;27.33;43.20;93674.81;5047488;28;9468;-65
2023/08/29 06:05:48;;;;;;;;;;;;;;;27.34;43.23;93672.81;5044992;28;7094;-65
2023/08/29 06:08:14;;;;;;;;;;;;;;;27.34;42.97;93673.53;5062233;28;7298;-65
2023/08/29 06:10:40;;;;;;;;;;;;;;;27.33;43.13;93674.06;5038669;28;7866;-65
2023/08/29 06:13:13;;;;;;;;;;;;;;;27.30;43.09;93675.88;5053453;28;7218;-65
2023/08/29 06:15:46;;;;;;;;;;;;;;;27.32;43.36;93687.13;5063410;28;6848;-65
2023/08/29 06:18:12;;;;;;;;;;;;;;;27.31;43.20;93680.16;5048957;28;6867;-65
2023/08/29 06:20:41;;;;;;;;;;;;;;;27.29;43.14;93682.72;5053729;28;7284;-65
2023/08/29 06:23:08;;;;;;;;;;;;;;;27.31;43.41;93682.91;5054830;28;7229;-65
2023/08/29 06:25:44;;;;;;;;;;;;;;;27.30;43.14;93683.44;5060498;28;7298;-60
2023/08/29 06:28:21;;;;;;;;;;;;;;;27.30;42.92;93697.97;5065773;28;8062;-60
2023/08/29 06:30:54;;;;;;;;;;;;;;;27.29;43.10;93693.75;5040673;28;8258;-60
2023/08/29 06:33:20;;;;;;;;;;;;;;;27.28;43.41;93703.31;5046033;28;9891;-60
2023/08/29 06:35:59;;;;;;;;;;;;;;;27.29;43.19;93702.03;5054841;28;7243;-60
2023/08/29 06:38:27;;;;;;;;;;;;;;;27.29;42.96;93699.28;5048141;28;7250;-60
2023/08/29 06:41:05;;;;;;;;;;;;;;;27.29;43.45;93702.03;5042761;28;8832;-60
2023/08/29 06:43:39;;;;;;;;;;;;;;;27.30;43.21;93702.75;5055895;28;7306;-60
2023/08/29 06:46:17;;;;;;;;;;;;;;;27.29;43.96;93702.03;5054361;28;7058;-61
2023/08/29 06:48:55;;;;;;;;;;;;;;;27.30;43.48;93700.00;5041405;28;7290;-60
2023/08/29 06:51:31;;;;;;;;;;;;;;;27.30;43.26;93703.50;5064159;28;7198;-61
2023/08/29 06:54:21;;;;;;;;;;;;;;;27.28;43.37;93711.59;5063019;28;6996;-60
2023/08/29 06:57:01;;;;;;;;;;;;;;;27.28;42.85;93706.06;5053043;28;7579;-60
2023/08/29 06:59:29;;;;;;;;;;;;;;;27.27;43.51;93712.13;5049540;28;9324;-61
2023/08/29 07:01:56;;;;;;;;;;;;;;;27.27;43.27;93709.38;5059363;28;9142;-60
2023/08/29 07:04:22;;;;;;;;;;;;;;;27.25;43.43;93696.09;5047491;28;7012;-60
2023/08/29 07:06:50;;;;;;;;;;;;;;;27.27;43.42;93695.56;5050732;28;7304;-60
2023/08/29 07:09:30;;;;;;;;;;;;;;;27.26;43.18;93702.34;5050048;28;9459;-60
2023/08/29 07:11:59;;;;;;;;;;;;;;;27.29;43.39;93704.78;5040390;28;9053;-60
2023/08/29 07:14:27;;;;;;;;;;;;;;;27.31;43.25;93699.47;5043973;28;7226;-61
2023/08/29 07:16:56;;;;;;;;;;;;;;;27.32;43.24;93705.72;5059688;28;7340;-61
2023/08/29 07:19:31;;;;;;;;;;;;;;;27.28;43.11;93699.78;5058349;28;7218;-61
2023/08/29 07:22:02;;;;;;;;;;;;;;;27.27;42.84;93712.88;5049765;28;7660;-61
2023/08/29 07:24:29;;;;;;;;;;;;;;;27.26;42.59;93707.88;5037121;28;6978;-61
2023/08/29 07:26:55;;;;;;;;;;;;;;;27.28;42.89;93716.34;5047161;28;8075;-61
2023/08/29 07:29:29;;;;;;;;;;;;;;;27.28;42.30;93719.13;5049658;28;7309;-61
2023/08/29 07:31:55;;;;;;;;;;;;;;;27.29;42.14;93717.84;5053507;28;7006;-61
2023/08/29 07:34:29;;;;;;;;;;;;;;;27.29;42.15;93718.59;5053424;28;7264;-56
2023/08/29 07:36:56;;;;;;;;;;;;;;;27.31;42.31;93721.56;5061611;28;7783;-55
2023/08/29 07:39:24;;;;;;;;;;;;;;;27.30;42.58;93722.84;5038013;28;7108;-56
2023/08/29 07:41:55;;;;;;;;;;;;;;;27.30;41.94;93724.84;5051219;28;7206;-56
2023/08/29 07:44:21;;;;;;;;;;;;;;;27.30;42.43;93724.84;5051245;28;6981;-56
2023/08/29 07:47:18;;;;;;;;;;;;;;;27.31;42.20;93731.88;5041699;28;7167;-56
2023/08/29 07:49:48;;;;;;;;;;;;;;;27.31;41.92;93729.84;4967716;28;7222;-55
2023/08/29 07:52:23;;;;;;;;;;;;;;;27.31;42.11;93727.09;4983680;28;7507;-55
2023/08/29 07:54:50;;;;;;;;;;;;;;;27.32;42.26;93738.84;4984308;28;9120;-56
2023/08/29 07:57:29;;;;;;;;;;;;;;;27.32;42.16;93738.84;4969600;28;7070;-55
2023/08/29 07:59:58;;;;;;;;;;;;;;;27.29;42.18;93743.44;4972211;28;7355;-55
2023/08/29 08:02:50;;;;;;;;;;;;;;;27.27;42.16;93757.06;4962072;28;7065;-56
2023/08/29 08:05:24;;;;;;;;;;;;;;;27.26;42.27;93758.31;4970068;28;9080;-55
2023/08/29 08:07:56;;;;;;;;;;;;;;;27.27;42.45;93759.81;4965573;28;7395;-55
2023/08/29 08:10:22;;;;;;;;;;;;;;;27.25;42.34;93759.59;4982751;28;7339;-56
2023/08/29 08:13:05;;;;;;;;;;;;;;;27.25;42.20;93764.38;4973191;28;7104;-56
2023/08/29 08:15:31;;;;;;;;;;;;;;;27.26;42.48;93754.81;4972429;28;6984;-56
2023/08/29 08:18:00;;;;;;;;;;;;;;;27.26;42.32;93763.84;4966744;28;7062;-56
2023/08/29 08:20:28;;;;;;;;;;;;;;;27.28;42.25;93764.03;4971568;28;7459;-55
2023/08/29 08:22:56;;;;;;;;;;;;;;;27.27;42.38;93765.34;4984830;28;7024;-56
2023/08/29 08:25:31;;;;;;;;;;;;;;;27.30;42.21;93749.69;4981167;28;7104;-56
2023/08/29 08:27:59;;;;;;;;;;;;;;;27.26;42.40;93752.06;5059092;28;7342;-56
2023/08/29 08:30:28;;;;;;;;;;;;;;;27.26;42.76;93758.31;5037091;28;7000;-56
2023/08/29 08:33:04;;;;;;;;;;;;;;;27.26;42.50;93760.34;5052077;28;7237;-56
2023/08/29 08:35:36;;;;;;;;;;;;;;;27.27;42.39;93761.84;5050718;28;7253;-55
2023/08/29 08:38:11;;;;;;;;;;;;;;;27.27;42.45;93757.06;5054090;28;9006;-56
2023/08/29 08:40:38;;;;;;;;;;;;;;;27.28;42.37;93766.06;5040550;28;7265;-56
2023/08/29 08:43:09;;;;;;;;;;;;;;;27.26;42.38;93763.84;5060018;28;9907;-55
2023/08/29 08:45:36;;;;;;;;;;;;;;;27.28;42.27;93760.53;5036293;28;7204;-65
2023/08/29 08:48:04;;;;;;;;;;;;;;;27.28;42.44;93761.28;5057667;28;7518;-65
2023/08/29 08:50:36;;;;;;;;;;;;;;;27.28;42.31;93769.56;5049455;28;8714;-65
2023/08/29 08:53:09;;;;;;;;;;;;;;;27.24;42.36;93760.88;5048051;28;7329;-65
2023/08/29 08:55:39;;;;;;;;;;;;;;;27.26;42.22;93769.38;5040436;28;7509;-65
2023/08/29 08:58:14;;;;;;;;;;;;;;;27.25;42.58;93756.09;5055895;28;9100;-65
2023/08/29 09:00:41;;;;;;;;;;;;;;;27.26;42.79;93758.31;5057667;28;8772;-65
2023/08/29 09:03:11;;;;;;;;;;;;;;;27.24;42.34;93749.84;5042662;28;7197;-64
2023/08/29 09:05:37;;;;;;;;;;;;;;;27.23;42.29;93751.09;5038986;28;7224;-64
2023/08/29 09:08:03;;;;;;;;;;;;;;;27.25;42.41;93751.31;5042791;28;7269;-65
2023/08/29 09:10:35;;;;;;;;;;;;;;;27.28;42.37;93755.75;5058304;28;7221;-65
2023/08/29 09:13:33;;;;;;;;;;;;;;;27.26;42.48;93750.03;5041976;28;8779;-64
2023/08/29 09:16:00;;;;;;;;;;;;;;;27.28;42.45;93747.47;5008532;28;7244;-65
2023/08/29 09:18:37;;;;;;;;;;;;;;;27.23;42.50;93753.16;4988828;28;9416;-65
2023/08/29 09:21:14;;;;;;;;;;;;;;;27.24;42.26;93746.31;4999755;28;9138;-65
2023/08/29 09:23:40;;;;;;;;;;;;;;;27.27;42.35;93751.53;5002380;28;7290;-64
2023/08/29 09:26:15;;;;;;;;;;;;;;;27.27;42.10;93748.78;4995685;28;7248;-65
2023/08/29 09:28:43;;;;;;;;;;;;;;;27.30;41.71;93750.44;4979669;28;8755;-65
2023/08/29 09:31:21;;;;;;;;;;;;;;;27.28;42.12;93755.75;4975174;28;7197;-64
2023/08/29 09:33:49;;;;;;;;;;;;;;;27.27;42.72;93756.31;5003582;28;9110;-65
2023/08/29 09:36:19;;;;;;;;;;;;;;;27.23;42.49;93750.38;4987933;28;9468;-65
2023/08/29 09:38:57;;;;;;;;;;;;;;;27.25;42.36;93753.34;4997790;28;9091;-65
2023/08/29 09:41:24;;;;;;;;;;;;;;;27.22;42.83;93757.91;4979555;28;7202;-65
2023/08/29 09:44:00;;;;;;;;;;;;;;;27.23;42.50;93759.38;5001925;28;9149;-65
2023/08/29 09:46:29;;;;;;;;;;;;;;;27.23;42.65;93764.91;4993337;28;7212;-65
2023/08/29 09:49:03;;;;;;;;;;;;;;;27.26;42.33;93763.84;5005718;28;9367;-65
2023/08/29 09:51:32;;;;;;;;;;;;;;;27.24;42.36;93763.63;5005272;28;9491;-65
2023/08/29 09:54:19;;;;;;;;;;;;;;;27.26;42.51;93763.09;5045598;28;7079;-60
2023/08/29 09:57:07;;;;;;;;;;;;;;;27.25;42.33;93759.59;5042653;28;8321;-61
2023/08/29 09:59:41;;;;;;;;;;;;;;;27.25;42.18;93762.34;5051580;28;7498;-61
2023/08/29 10:02:12;;;;;;;;;;;;;;;27.25;42.81;93765.09;5044266;28;8387;-61
2023/08/29 10:04:55;;;;;;;;;;;;;;;27.21;41.99;93761.94;5038750;28;7269;-61
2023/08/29 10:07:51;;;;;;;;;;;;;;;27.20;42.25;93766.00;5061862;28;7059;-61
2023/08/29 10:10:47;;;;;;;;;;;;;;;27.20;41.97;93766.00;5064727;28;7206;-61
2023/08/29 10:13:14;;;;;;;;;;;;;;;27.21;41.98;93772.25;4986589;28;7013;-61
2023/08/29 10:15:46;;;;;;;;;;;;;;;27.19;42.47;93769.28;4986166;28;9417;-61
2023/08/29 10:18:44;;;;;;;;;;;;;;;27.19;42.39;93780.31;4990703;28;9307;-61
2023/08/29 10:21:14;;;;;;;;;;;;;;;27.17;42.92;93767.06;4910379;29;7340;-61
2023/08/29 10:23:41;;;;;;;;;;;;;;;27.17;42.76;93767.06;4909525;29;7237;-61
2023/08/29 10:26:07;;;;;;;;;;;;;;;27.17;42.74;93761.53;4907796;29;7013;-61
2023/08/29 10:28:35;;;;;;;;;;;;;;;27.20;42.74;93763.22;4899433;29;9102;-61
2023/08/29 10:31:06;;;;;;;;;;;;;;;27.18;42.84;93754.75;4914002;29;7066;-61
2023/08/29 10:33:45;;;;;;;;;;;;;;;27.20;43.57;93777.03;4912503;29;8726;-61
2023/08/29 10:36:11;;;;;;;;;;;;;;;27.17;44.04;93767.06;4912098;29;9474;-61
2023/08/29 10:38:40;;;;;;;;;;;;;;;27.17;43.65;93771.84;4896139;29;6997;-61
2023/08/29 10:41:10;;;;;;;;;;;;;;;27.19;43.92;93770.03;4909538;29;6860;-61
2023/08/29 10:43:41;;;;;;;;;;;;;;;27.18;44.75;93757.50;4894252;29;7165;-61
2023/08/29 10:46:10;;;;;;;;;;;;;;;27.19;44.42;93766.50;4909775;29;7330;-61
2023/08/29 10:49:00;;;;;;;;;;;;;;;27.21;43.96;93761.94;4909953;28;9196;-61
2023/08/29 10:52:06;;;;;;;;;;;;;;;27.22;44.07;93760.69;4950942;28;9499;-61
2023/08/29 10:54:32;;;;;;;;;;;;;;;27.22;43.29;93768.22;4947240;28;7894;-61
2023/08/29 10:57:27;;;;;;;;;;;;;;;27.21;43.40;93761.94;4977421;28;7230;-62
2023/08/29 10:59:56;;;;;;;;;;;;;;;27.18;43.91;93757.50;5051262;28;7553;-61
2023/08/29 11:02:32;;;;;;;;;;;;;;;27.16;43.43;93751.78;5041810;28;9059;-61
2023/08/29 11:05:04;;;;;;;;;;;;;;;27.17;43.55;93756.00;5050376;28;7266;-61
2023/08/29 11:07:41;;;;;;;;;;;;;;;27.16;43.40;93754.53;5047131;28;7885;-62
2023/08/29 11:10:24;;;;;;;;;;;;;;;27.17;43.43;93755.28;5042028;28;8827;-62
2023/08/29 11:13:11;;;;;;;;;;;;;;;27.18;42.99;93756.75;5045913;28;9399;-62
2023/08/29 11:19:18;;;;;;;;;;;;;;;27.07;44.19;93760.50;5041108;28;7284;-62
2023/08/29 11:21:57;;;;;;;;;;;;;;;27.03;44.38;93753.84;5035961;28;10575;-62
2023/08/29 11:24:24;;;;;;;;;;;;;;;27.05;43.88;93760.31;5042392;28;7152;-61
2023/08/29 11:26:52;;;;;;;;;;;;;;;27.11;43.73;93763.69;5039346;28;6986;-62
2023/08/29 11:29:21;;;;;;;;;;;;;;;27.11;44.23;93758.16;5020250;28;8978;-61
2023/08/29 11:32:00;;;;;;;;;;;;;;;27.10;43.68;93764.22;5013931;28;8990;-61
2023/08/29 11:34:26;;;;;;;;;;;;;;;27.13;43.80;93772.16;5025168;28;9200;-61
2023/08/29 11:37:13;;;;;;;;;;;;;;;27.12;43.81;93759.63;5038910;28;7237;-61
2023/08/29 11:39:51;;;;;;;;;;;;;;;27.12;43.77;93765.16;5043244;28;7186;-61
2023/08/29 11:42:25;;;;;;;;;;;;;;;27.17;43.74;93760.78;5043353;28;7127;-62
2023/08/29 11:44:54;;;;;;;;;;;;;;;27.19;43.44;93758.97;5028298;28;7062;-61
2023/08/29 11:47:20;;;;;;;;;;;;;;;27.18;43.34;93762.28;5031548;28;6985;-62
2023/08/29 11:50:07;;;;;;;;;;;;;;;27.19;43.21;93766.50;5016280;28;7248;-62
2023/08/29 11:52:34;;;;;;;;;;;;;;;27.18;43.24;93760.28;5025335;28;7149;-61
2023/08/29 11:55:04;;;;;;;;;;;;;;;27.19;43.36;93770.03;5037051;28;7167;-62
2023/08/29 11:57:31;;;;;;;;;;;;;;;27.20;43.21;93766.00;5059401;28;9063;-61
2023/08/29 11:59:57;;;;;;;;;;;;;;;27.21;43.01;93775.75;5059669;28;8910;-61
2023/08/29 12:02:26;;;;;;;;;;;;;;;27.19;43.38;93775.53;5039390;28;7447;-62
2023/08/29 12:04:56;;;;;;;;;;;;;;;27.19;43.37;93775.53;5041421;28;9167;-62
2023/08/29 12:07:31;;;;;;;;;;;;;;;27.18;43.42;93779.59;5060578;28;7054;-62
2023/08/29 12:10:06;;;;;;;;;;;;;;;27.19;43.57;93785.84;5032677;28;7228;-61
2023/08/29 12:12:35;;;;;;;;;;;;;;;27.18;43.50;93785.13;5041258;28;9390;-62
2023/08/29 12:15:38;;;;;;;;;;;;;;;27.18;43.41;93779.59;5049128;28;9065;-55
2023/08/29 12:18:26;;;;;;;;;;;;;;;27.17;43.86;93782.88;4981844;28;7197;-55
2023/08/29 12:21:18;;;;;;;;;;;;;;;27.26;43.62;93772.13;4989651;28;9175;-56
2023/08/29 12:23:45;;;;;;;;;;;;;;;27.35;43.30;93765.41;4998797;28;7203;-56
2023/08/29 12:26:20;;;;;;;;;;;;;;;27.44;43.53;93774.00;4988643;28;7238;-56
2023/08/29 12:28:47;;;;;;;;;;;;;;;27.44;42.60;93768.47;4992348;28;8785;-56
2023/08/29 12:31:43;;;;;;;;;;;;;;;27.45;43.39;93766.44;5004246;28;9120;-56
2023/08/29 12:34:10;;;;;;;;;;;;;;;27.46;43.30;93767.94;4947710;28;9164;-56
2023/08/29 12:36:39;;;;;;;;;;;;;;;27.48;43.03;93770.91;4950862;28;8691;-55
2023/08/29 12:39:16;;;;;;;;;;;;;;;27.46;43.04;93760.41;4949106;28;7221;-55
2023/08/29 12:41:42;;;;;;;;;;;;;;;27.48;43.02;93773.66;4951641;28;8763;-55
2023/08/29 12:44:23;;;;;;;;;;;;;;;27.45;43.23;93769.19;4951212;28;9354;-56
2023/08/29 12:46:59;;;;;;;;;;;;;;;27.42;43.06;93771.03;4950341;28;6976;-55
2023/08/29 12:49:24;;;;;;;;;;;;;;;27.40;43.20;93770.84;4950941;28;8285;-55
2023/08/29 12:52:05;;;;;;;;;;;;;;;27.38;43.27;93767.84;4960893;28;9215;-55
2023/08/29 12:54:44;;;;;;;;;;;;;;;27.37;42.81;93765.63;5008972;28;9016;-55
2023/08/29 12:57:11;;;;;;;;;;;;;;;27.34;43.44;93772.94;5001826;28;7307;-55
2023/08/29 12:59:39;;;;;;;;;;;;;;;27.35;43.45;93770.94;4988807;28;7202;-55
2023/08/29 13:02:17;;;;;;;;;;;;;;;27.32;43.22;93767.22;4997637;28;7226;-56
2023/08/29 13:04:45;;;;;;;;;;;;;;;27.34;43.36;93769.47;4990472;28;9035;-56
2023/08/29 13:07:22;;;;;;;;;;;;;;;27.34;43.42;93767.41;4987528;28;9563;-56
2023/08/29 13:09:52;;;;;;;;;;;;;;;27.33;43.30;93763.19;5000298;28;9453;-56
2023/08/29 13:12:27;;;;;;;;;;;;;;;27.30;43.29;93763.50;5045775;28;9921;-55
2023/08/29 13:15:01;;;;;;;;;;;;;;;27.31;43.60;93765.75;5050201;28;7173;-55
2023/08/29 13:17:38;;;;;;;;;;;;;;;27.32;43.79;93758.19;5065314;28;7525;-55
2023/08/29 13:20:10;;;;;;;;;;;;;;;27.32;43.24;93761.69;5041120;28;7418;-56
2023/08/29 13:22:37;;;;;;;;;;;;;;;27.33;43.30;93768.72;5056970;28;7261;-56
2023/08/29 13:25:07;;;;;;;;;;;;;;;27.32;43.38;93761.69;5054866;28;7152;-61
2023/08/29 13:27:34;;;;;;;;;;;;;;;27.31;43.54;93760.22;5041320;28;7466;-61